Terminal Aerodrome Forecast
Issued by NWS

Home | Current Version | Previous Version | Text Only | Print | Product List | Glossary On
Versions: 1 2 3 4 5 6 7 8 9 10 11 12
000
FTUS44 KSJT 261100
TAFJCT
TAF
KJCT 261137Z 2612/2712 VRB03KT P6SM SKC
     FM261600 27008KT P6SM SKC
     FM262200 01005KT P6SM SKC=

USA.gov is the U.S. government's official web portal to all federal, state and local government web resources and services.